createdAt,value
2022-11-16T00:00:21.479Z,28.35
2022-11-16T00:04:35.844Z,29.50
2022-11-16T00:08:41.251Z,31.27
2022-11-16T00:12:43.222Z,30.17
2022-11-16T00:16:45.046Z,29.05
2022-11-16T00:20:47.046Z,28.58
2022-11-16T00:24:48.767Z,30.10
2022-11-16T00:28:53.145Z,28.55
2022-11-16T00:33:00.671Z,30.10
2022-11-16T00:37:02.835Z,29.80
2022-11-16T00:41:05.547Z,30.83
2022-11-16T00:45:08.213Z,30.58
2022-11-16T00:49:10.310Z,31.92
2022-11-16T00:53:15.303Z,27.25
2022-11-16T00:57:17.049Z,28.05
2022-11-16T01:01:20.793Z,26.20
2022-11-16T01:05:25.431Z,26.67
2022-11-16T01:09:27.480Z,27.13
2022-11-16T01:13:29.209Z,25.60
2022-11-16T01:17:31.259Z,25.10
2022-11-16T01:21:33.630Z,26.38
2022-11-16T01:25:35.743Z,23.65
2022-11-16T01:29:37.767Z,22.88
2022-11-16T01:33:40.451Z,22.30
2022-11-16T01:37:49.407Z,23.17
2022-11-16T01:41:51.464Z,22.90
2022-11-16T01:45:53.706Z,22.27
2022-11-16T01:50:01.536Z,22.67
2022-11-16T01:54:08.606Z,24.65
2022-11-16T01:58:18.274Z,21.60
2022-11-16T02:02:22.784Z,24.75
2022-11-16T02:06:35.662Z,21.50
2022-11-16T02:11:11.839Z,20.63
2022-11-16T02:15:28.358Z,20.90
2022-11-16T02:20:16.009Z,21.58
2022-11-16T02:24:39.713Z,21.58
2022-11-16T02:29:09.351Z,21.20
2022-11-16T02:33:18.843Z,21.63
2022-11-16T02:37:23.688Z,23.50
2022-11-16T02:41:28.686Z,22.42
2022-11-16T02:45:36.456Z,22.45
2022-11-16T02:49:46.609Z,22.65
2022-11-16T02:54:02.778Z,20.55
2022-11-16T02:58:09.760Z,25.25
2022-11-16T03:02:30.387Z,23.23
2022-11-16T03:06:39.696Z,23.02
2022-11-16T03:11:05.008Z,21.27
2022-11-16T03:15:12.076Z,23.73
2022-11-16T03:19:20.811Z,22.60
2022-11-16T03:23:22.894Z,22.30
2022-11-16T03:27:31.969Z,25.00
2022-11-16T03:31:40.025Z,23.20
2022-11-16T03:35:46.153Z,24.38
2022-11-16T03:39:49.691Z,24.90
2022-11-16T03:43:53.143Z,24.65
2022-11-16T03:47:55.859Z,25.90
2022-11-16T03:51:58.525Z,24.58
2022-11-16T03:56:00.827Z,24.92
2022-11-16T04:00:04.889Z,23.23
2022-11-16T04:04:35.379Z,24.80
2022-11-16T04:08:57.203Z,25.33
2022-11-16T04:13:19.055Z,24.88
2022-11-16T04:17:42.664Z,24.75
2022-11-16T04:22:12.264Z,24.13
2022-11-16T04:26:14.128Z,24.48
2022-11-16T04:30:16.797Z,29.65
2022-11-16T04:34:37.442Z,29.25
2022-11-16T04:38:39.683Z,30.27
2022-11-16T04:42:41.792Z,28.98
2022-11-16T04:47:03.164Z,26.02
2022-11-16T04:51:05.141Z,26.42
2022-11-16T04:55:08.955Z,29.10
2022-11-16T04:59:10.850Z,29.42
2022-11-16T05:03:13.215Z,30.67
2022-11-16T05:07:15.761Z,29.55
2022-11-16T05:11:19.983Z,28.67
2022-11-16T05:15:22.263Z,29.45
2022-11-16T05:19:43.328Z,29.17
2022-11-16T05:24:03.817Z,28.92
2022-11-16T05:28:06.517Z,31.52
2022-11-16T05:32:13.238Z,30.40
2022-11-16T05:36:15.209Z,31.27
2022-11-16T05:40:17.218Z,30.42
2022-11-16T05:44:25.849Z,33.70
2022-11-16T05:48:27.616Z,33.40
2022-11-16T05:52:29.767Z,32.40
2022-11-16T05:56:36.570Z,31.77
2022-11-16T06:00:38.575Z,28.55
2022-11-16T06:04:41.354Z,28.63
2022-11-16T06:08:44.241Z,31.02
2022-11-16T06:12:50.058Z,34.45
2022-11-16T06:16:52.777Z,29.55
2022-11-16T06:20:55.165Z,28.65
2022-11-16T06:24:57.868Z,29.35
2022-11-16T06:29:01.036Z,27.25
2022-11-16T06:33:03.756Z,26.98
2022-11-16T06:37:05.831Z,26.88
2022-11-16T06:41:08.763Z,25.83
2022-11-16T06:45:16.223Z,27.02
2022-11-16T06:49:24.652Z,26.45
2022-11-16T06:53:29.579Z,25.67
2022-11-16T06:57:35.852Z,25.83
2022-11-16T07:01:38.970Z,26.35
2022-11-16T07:05:46.483Z,24.88
2022-11-16T07:09:51.643Z,24.27
2022-11-16T07:13:54.567Z,26.35
2022-11-16T07:17:56.467Z,26.10
2022-11-16T07:21:58.585Z,26.67
2022-11-16T07:26:04.884Z,27.52
2022-11-16T07:30:14.667Z,26.65
2022-11-16T07:34:26.580Z,25.67
2022-11-16T07:38:40.046Z,26.40
2022-11-16T07:42:43.682Z,29.17
2022-11-16T07:47:01.745Z,27.85
2022-11-16T07:51:07.835Z,28.83
2022-11-16T07:55:14.671Z,29.98
2022-11-16T07:59:17.711Z,30.55
2022-11-16T08:03:24.635Z,29.50
2022-11-16T08:07:28.560Z,28.47
2022-11-16T08:11:32.057Z,28.38
2022-11-16T08:15:33.800Z,29.35
2022-11-16T08:19:40.269Z,29.25
2022-11-16T08:23:44.988Z,27.75
2022-11-16T08:27:48.203Z,28.73
2022-11-16T08:31:53.528Z,25.75
2022-11-16T08:35:58.748Z,26.60
2022-11-16T08:40:00.546Z,24.98
2022-11-16T08:44:04.086Z,23.98
2022-11-16T08:48:06.985Z,24.90
2022-11-16T08:52:11.678Z,24.90
2022-11-16T08:56:14.872Z,22.58
2022-11-16T09:00:18.003Z,23.23
2022-11-16T09:04:19.762Z,22.33
2022-11-16T09:08:21.706Z,19.40
2022-11-16T09:12:23.415Z,19.17
2022-11-16T09:16:27.816Z,18.48
2022-11-16T09:20:29.576Z,17.85
2022-11-16T09:24:31.563Z,16.45
2022-11-16T09:28:33.874Z,16.30
2022-11-16T09:32:35.988Z,14.68
2022-11-16T09:36:37.814Z,15.90
2022-11-16T09:40:45.078Z,15.38
2022-11-16T09:45:06.337Z,15.27
2022-11-16T09:49:17.525Z,12.88
2022-11-16T09:53:35.127Z,14.57
2022-11-16T09:57:38.355Z,13.60
2022-11-16T10:02:20.001Z,12.52
2022-11-16T10:06:40.369Z,12.68
2022-11-16T10:10:54.779Z,13.25
2022-11-16T10:15:34.327Z,11.70
2022-11-16T10:19:54.840Z,11.90
2022-11-16T10:24:15.214Z,11.13
2022-11-16T10:28:38.606Z,14.85
2022-11-16T10:32:59.580Z,11.73
2022-11-16T10:37:04.614Z,11.20
2022-11-16T10:41:24.334Z,14.30
2022-11-16T10:45:35.692Z,9.40
2022-11-16T10:49:49.175Z,11.15
2022-11-16T10:53:53.035Z,11.27
2022-11-16T10:58:01.002Z,9.10
2022-11-16T11:02:31.330Z,9.18
2022-11-16T11:06:33.649Z,10.57
2022-11-16T11:10:40.566Z,8.18
2022-11-16T11:14:42.524Z,8.55
2022-11-16T11:18:44.348Z,8.13
2022-11-16T11:22:55.960Z,9.30
2022-11-16T11:26:59.539Z,9.32
2022-11-16T11:31:05.252Z,8.50
2022-11-16T11:35:27.287Z,7.40
2022-11-16T11:39:33.742Z,7.20
2022-11-16T11:43:37.245Z,7.05
2022-11-16T11:47:58.511Z,9.90
2022-11-16T11:52:20.996Z,6.82
2022-11-16T11:56:24.163Z,6.18
2022-11-16T12:00:26.219Z,10.30
2022-11-16T12:05:05.624Z,6.43
2022-11-16T12:09:35.214Z,5.88
2022-11-16T12:13:58.457Z,10.05
2022-11-16T12:18:33.148Z,8.93
2022-11-16T12:23:04.199Z,6.35
2022-11-16T12:27:37.961Z,5.32
2022-11-16T12:32:21.981Z,6.63
2022-11-16T12:36:36.701Z,6.47
2022-11-16T12:41:03.208Z,4.43
2022-11-16T12:45:29.035Z,6.10
2022-11-16T12:49:52.618Z,35.00
2022-11-16T12:54:18.856Z,21.63
2022-11-16T12:58:33.011Z,19.70
2022-11-16T13:02:56.420Z,11.65
2022-11-16T13:07:11.185Z,7.53
2022-11-16T13:11:20.254Z,8.63
2022-11-16T13:15:27.715Z,7.68
2022-11-16T13:19:29.918Z,5.57
2022-11-16T13:23:32.281Z,9.38
2022-11-16T13:27:41.470Z,11.35
2022-11-16T13:32:22.280Z,8.73
2022-11-16T13:36:37.041Z,5.35
2022-11-16T13:40:40.575Z,5.55
2022-11-16T13:44:45.193Z,13.43
2022-11-16T13:48:51.861Z,14.45
2022-11-16T13:54:03.804Z,12.10
2022-11-16T13:57:29.620Z,9.38
2022-11-16T14:01:56.326Z,7.60
2022-11-16T14:05:59.555Z,7.63
2022-11-16T14:10:05.672Z,8.60
2022-11-16T14:14:13.578Z,9.20
2022-11-16T14:18:15.397Z,8.43
2022-11-16T14:22:27.979Z,13.73
2022-11-16T14:26:43.621Z,9.70
2022-11-16T14:31:00.222Z,9.90
2022-11-16T14:35:05.577Z,9.27
2022-11-16T14:39:31.911Z,8.98
2022-11-16T14:43:45.773Z,8.35
2022-11-16T14:47:48.375Z,8.45
2022-11-16T14:51:53.754Z,7.22
2022-11-16T14:56:07.383Z,8.45
2022-11-16T15:00:18.248Z,8.10
2022-11-16T15:04:23.343Z,7.60
2022-11-16T15:08:35.170Z,7.00
2022-11-16T15:12:42.532Z,6.80
2022-11-16T15:16:52.309Z,7.13
2022-11-16T15:20:54.410Z,7.22
2022-11-16T15:25:00.880Z,6.85
2022-11-16T15:29:02.854Z,5.93
2022-11-16T15:33:11.239Z,7.47
2022-11-16T15:37:15.169Z,7.13
2022-11-16T15:41:18.329Z,14.98
2022-11-16T15:45:25.538Z,8.55
2022-11-16T15:49:35.254Z,9.55
2022-11-16T15:53:42.796Z,5.80
2022-11-16T15:57:46.615Z,6.40
2022-11-16T16:01:49.130Z,6.45
2022-11-16T16:05:52.066Z,8.00
2022-11-16T16:10:13.045Z,8.00
2022-11-16T16:14:27.492Z,7.35
2022-11-16T16:18:41.554Z,6.35
2022-11-16T16:22:43.391Z,8.55
2022-11-16T16:26:45.260Z,10.30
2022-11-16T16:30:50.859Z,9.48
2022-11-16T16:34:54.951Z,7.82
2022-11-16T16:38:57.320Z,7.55
2022-11-16T16:42:59.228Z,7.80
2022-11-16T16:47:00.989Z,10.85
2022-11-16T16:51:02.908Z,9.23
2022-11-16T16:55:05.127Z,7.53
2022-11-16T16:59:07.198Z,8.63
2022-11-16T17:03:09.003Z,10.73
2022-11-16T17:07:10.979Z,7.88
2022-11-16T17:11:14.860Z,7.25
2022-11-16T17:15:19.529Z,6.97
2022-11-16T17:19:21.996Z,7.38
2022-11-16T17:23:24.071Z,5.40
2022-11-16T17:27:26.074Z,5.72
2022-11-16T17:31:28.395Z,6.30
2022-11-16T17:35:30.058Z,5.88
2022-11-16T17:39:31.927Z,4.78
2022-11-16T17:43:34.560Z,5.32
2022-11-16T17:47:36.753Z,5.03
2022-11-16T17:51:38.461Z,4.80
2022-11-16T17:55:40.383Z,4.78
2022-11-16T17:59:42.261Z,4.97
2022-11-16T18:03:44.910Z,5.28
2022-11-16T18:07:46.610Z,5.00
2022-11-16T18:11:48.554Z,4.50
2022-11-16T18:15:50.314Z,5.68
2022-11-16T18:19:52.307Z,6.18
2022-11-16T18:23:54.710Z,5.85
2022-11-16T18:27:56.658Z,6.55
2022-11-16T18:31:58.408Z,7.60
2022-11-16T18:36:00.462Z,6.95
2022-11-16T18:40:02.776Z,6.85
2022-11-16T18:44:06.279Z,6.53
2022-11-16T18:48:08.078Z,8.52
2022-11-16T18:52:10.006Z,7.15
2022-11-16T18:56:12.096Z,6.53
2022-11-16T19:00:15.194Z,8.02
2022-11-16T19:04:16.895Z,7.35
2022-11-16T19:08:18.836Z,8.07
2022-11-16T19:12:20.602Z,9.30
2022-11-16T19:16:23.889Z,7.20
2022-11-16T19:20:26.270Z,7.82
2022-11-16T19:24:28.431Z,8.68
2022-11-16T19:28:31.745Z,10.13
2022-11-16T19:32:33.818Z,8.10
2022-11-16T19:36:36.640Z,9.55
2022-11-16T19:40:39.517Z,9.38
2022-11-16T19:44:41.209Z,10.30
2022-11-16T19:48:44.437Z,10.18
2022-11-16T19:52:46.057Z,10.38
2022-11-16T19:56:53.580Z,12.13
2022-11-16T20:01:02.542Z,13.00
2022-11-16T20:05:04.787Z,13.68
2022-11-16T20:09:12.016Z,12.68
2022-11-16T20:13:14.131Z,14.40
2022-11-16T20:17:15.952Z,15.00
2022-11-16T20:21:28.093Z,14.80
2022-11-16T20:25:30.072Z,14.80
2022-11-16T20:29:31.960Z,16.33
2022-11-16T20:33:34.842Z,15.95
2022-11-16T20:37:37.152Z,16.88
2022-11-16T20:41:38.972Z,16.90
2022-11-16T20:45:41.198Z,17.15
2022-11-16T20:49:42.952Z,17.45
2022-11-16T20:53:46.742Z,16.60
2022-11-16T20:57:48.547Z,17.90
2022-11-16T21:01:53.671Z,18.50
2022-11-16T21:05:55.852Z,18.90
2022-11-16T21:10:16.568Z,19.05
2022-11-16T21:14:19.842Z,18.08
2022-11-16T21:18:24.246Z,18.70
2022-11-16T21:22:32.303Z,17.20
2022-11-16T21:26:35.387Z,17.73
2022-11-16T21:30:37.398Z,17.83
2022-11-16T21:34:40.339Z,17.13
2022-11-16T21:38:43.369Z,15.75
2022-11-16T21:42:45.051Z,14.65
2022-11-16T21:46:47.013Z,14.23
2022-11-16T21:50:58.785Z,15.15
2022-11-16T21:55:00.863Z,14.32
2022-11-16T21:59:02.518Z,14.57
2022-11-16T22:03:04.568Z,12.20
2022-11-16T22:07:24.760Z,12.35
2022-11-16T22:11:26.910Z,12.00
2022-11-16T22:15:28.536Z,11.48
2022-11-16T22:19:30.518Z,10.82
2022-11-16T22:23:33.019Z,9.65
2022-11-16T22:27:52.115Z,9.10
2022-11-16T22:31:57.231Z,9.13
2022-11-16T22:35:59.861Z,8.88
2022-11-16T22:40:01.976Z,8.80
2022-11-16T22:44:04.056Z,7.22
2022-11-16T22:48:05.877Z,7.60
2022-11-16T22:52:08.008Z,7.93
2022-11-16T22:56:10.742Z,7.53
2022-11-16T23:00:13.735Z,7.30
2022-11-16T23:04:15.705Z,6.55
2022-11-16T23:08:17.661Z,7.20
2022-11-16T23:12:38.107Z,7.35
2022-11-16T23:16:41.036Z,6.00
2022-11-16T23:21:01.496Z,5.78
2022-11-16T23:25:23.073Z,6.07
2022-11-16T23:29:24.756Z,6.35
2022-11-16T23:33:43.906Z,4.72
2022-11-16T23:38:10.781Z,5.55
2022-11-16T23:42:31.560Z,4.97
2022-11-16T23:46:33.723Z,4.90
2022-11-16T23:50:36.320Z,4.82
2022-11-16T23:54:38.072Z,4.72
2022-11-16T23:58:39.967Z,4.22
